createdAt,value
2022-08-26T00:04:49.388Z,2.15
2022-08-26T00:09:54.492Z,2.17
2022-08-26T00:15:00.679Z,1.90
2022-08-26T00:20:06.604Z,2.28
2022-08-26T00:25:12.144Z,1.87
2022-08-26T00:30:22.717Z,1.65
2022-08-26T00:35:29.359Z,1.70
2022-08-26T00:40:40.649Z,2.12
2022-08-26T00:45:49.737Z,1.58
2022-08-26T00:50:57.417Z,1.85
2022-08-26T00:56:04.644Z,2.10
2022-08-26T01:01:11.483Z,1.83
2022-08-26T01:06:16.292Z,1.77
2022-08-26T01:11:21.850Z,1.75
2022-08-26T01:16:27.865Z,1.73
2022-08-26T01:21:40.584Z,1.48
2022-08-26T01:26:46.618Z,1.70
2022-08-26T01:31:55.309Z,2.10
2022-08-26T01:37:02.113Z,1.80
2022-08-26T01:42:12.084Z,1.40
2022-08-26T01:47:18.120Z,1.30
2022-08-26T01:52:28.049Z,1.20
2022-08-26T01:57:33.883Z,1.42
2022-08-26T02:02:38.275Z,1.70
2022-08-26T02:07:43.121Z,1.40
2022-08-26T02:12:48.196Z,1.17
2022-08-26T02:17:53.242Z,1.52
2022-08-26T02:22:56.971Z,1.75
2022-08-26T02:28:02.316Z,1.67
2022-08-26T02:33:06.992Z,1.40
2022-08-26T02:38:11.649Z,1.20
2022-08-26T02:43:16.982Z,1.65
2022-08-26T02:48:22.557Z,1.60
2022-08-26T02:53:26.304Z,1.48
2022-08-26T02:58:33.253Z,1.50
2022-08-26T03:03:37.815Z,1.58
2022-08-26T03:08:42.525Z,1.77
2022-08-26T03:13:48.362Z,1.30
2022-08-26T03:18:52.625Z,1.98
2022-08-26T03:23:58.696Z,1.30
2022-08-26T03:29:22.623Z,1.50
2022-08-26T03:34:26.349Z,1.20
2022-08-26T03:39:31.434Z,1.90
2022-08-26T03:44:37.399Z,1.60
2022-08-26T03:49:45.852Z,1.30
2022-08-26T03:54:49.762Z,1.20
2022-08-26T03:59:54.809Z,1.37
2022-08-26T04:04:58.639Z,1.62
2022-08-26T04:10:02.324Z,1.48
2022-08-26T04:15:10.944Z,1.12
2022-08-26T04:20:18.040Z,1.30
2022-08-26T04:25:22.535Z,2.08
2022-08-26T04:30:29.311Z,1.48
2022-08-26T04:35:34.315Z,1.23
2022-08-26T04:40:38.866Z,1.30
2022-08-26T04:45:44.460Z,1.27
2022-08-26T04:50:49.351Z,1.00
2022-08-26T04:55:55.194Z,1.77
2022-08-26T05:01:00.482Z,1.10
2022-08-26T05:06:05.972Z,0.90
2022-08-26T05:11:10.510Z,1.00
2022-08-26T05:16:17.129Z,0.93
2022-08-26T05:21:23.572Z,1.25
2022-08-26T05:26:29.663Z,1.40
2022-08-26T05:31:35.692Z,1.23
2022-08-26T05:36:40.204Z,0.93
2022-08-26T05:41:44.743Z,1.27
2022-08-26T05:46:50.084Z,1.42
2022-08-26T05:51:55.091Z,1.40
2022-08-26T05:56:58.848Z,1.52
2022-08-26T06:02:04.685Z,1.60
2022-08-26T06:07:09.903Z,1.25
2022-08-26T06:12:15.783Z,2.50
2022-08-26T06:17:23.616Z,2.47
2022-08-26T06:22:46.441Z,2.65
2022-08-26T06:27:51.347Z,2.03
2022-08-26T06:32:56.602Z,4.45
2022-08-26T06:38:02.528Z,2.03
2022-08-26T06:43:07.318Z,1.02
2022-08-26T06:48:13.223Z,1.20
2022-08-26T06:53:18.079Z,0.98
2022-08-26T06:58:22.145Z,0.95
2022-08-26T07:03:27.327Z,1.15
2022-08-26T07:08:32.640Z,1.30
2022-08-26T07:13:38.820Z,1.35
2022-08-26T07:18:45.886Z,2.05
2022-08-26T07:23:49.854Z,1.90
2022-08-26T07:28:55.750Z,2.03
2022-08-26T07:34:00.854Z,2.00
2022-08-26T07:39:05.077Z,1.85
2022-08-26T07:44:08.905Z,1.58
2022-08-26T07:49:15.786Z,1.65
2022-08-26T07:54:20.175Z,1.73
2022-08-26T07:59:30.637Z,1.70
2022-08-26T08:04:36.424Z,1.80
2022-08-26T08:09:40.657Z,1.52
2022-08-26T08:14:45.427Z,1.58
2022-08-26T08:19:50.521Z,2.10
2022-08-26T08:24:54.604Z,1.40
2022-08-26T08:29:58.435Z,1.37
2022-08-26T08:35:10.724Z,1.35
2022-08-26T08:40:18.437Z,1.48
2022-08-26T08:45:34.492Z,1.40
2022-08-26T08:50:45.775Z,1.05
2022-08-26T08:56:05.047Z,1.70
2022-08-26T09:01:17.183Z,1.30
2022-08-26T09:06:22.472Z,1.35
2022-08-26T09:11:26.441Z,1.40
2022-08-26T09:16:43.123Z,1.58
2022-08-26T09:21:56.774Z,1.30
2022-08-26T09:27:00.725Z,1.55
2022-08-26T09:32:22.136Z,1.25
2022-08-26T09:37:43.175Z,1.70
2022-08-26T09:42:48.217Z,1.30
2022-08-26T09:47:56.019Z,1.12
2022-08-26T09:53:09.884Z,1.27
2022-08-26T09:58:32.621Z,1.33
2022-08-26T10:03:39.082Z,0.90
2022-08-26T10:08:47.423Z,1.30
2022-08-26T10:13:57.956Z,1.45
2022-08-26T10:19:07.564Z,1.25
2022-08-26T10:24:20.289Z,0.95
2022-08-26T10:29:34.324Z,0.80
2022-08-26T10:34:38.105Z,0.88
2022-08-26T10:39:56.878Z,0.88
2022-08-26T10:45:11.736Z,0.80
2022-08-26T10:50:18.035Z,1.00
2022-08-26T10:55:35.751Z,1.17
2022-08-26T11:01:02.371Z,0.85
2022-08-26T11:06:22.303Z,1.12
2022-08-26T11:11:47.975Z,1.00
2022-08-26T11:16:53.341Z,0.77
2022-08-26T11:22:06.780Z,0.90
2022-08-26T11:27:33.497Z,0.85
2022-08-26T11:32:51.275Z,0.80
2022-08-26T11:37:58.265Z,0.88
2022-08-26T11:43:07.414Z,0.55
2022-08-26T11:48:23.947Z,0.90
2022-08-26T11:53:30.192Z,0.70
2022-08-26T11:58:35.526Z,0.70
2022-08-26T12:03:48.187Z,1.02
2022-08-26T12:08:54.611Z,1.55
2022-08-26T12:14:00.421Z,0.60
2022-08-26T12:19:25.165Z,0.95
2022-08-26T12:24:29.316Z,0.47
2022-08-26T12:29:33.155Z,0.80
2022-08-26T12:34:38.443Z,1.62
2022-08-26T12:39:44.406Z,0.90
2022-08-26T12:44:53.410Z,1.37
2022-08-26T12:50:05.927Z,1.17
2022-08-26T12:55:22.120Z,1.10
2022-08-26T13:00:39.290Z,1.37
2022-08-26T13:05:44.385Z,1.50
2022-08-26T13:10:48.774Z,1.10
2022-08-26T13:15:52.581Z,1.20
2022-08-26T13:20:58.232Z,1.40
2022-08-26T13:26:01.967Z,1.70
2022-08-26T13:31:06.013Z,1.45
2022-08-26T13:36:11.633Z,1.30
2022-08-26T13:41:15.415Z,1.50
2022-08-26T13:46:20.903Z,1.30
2022-08-26T13:51:27.990Z,1.17
2022-08-26T13:56:32.589Z,1.27
2022-08-26T14:01:38.077Z,0.95
2022-08-26T14:06:43.215Z,1.48
2022-08-26T14:11:54.588Z,1.30
2022-08-26T14:17:00.402Z,1.15
2022-08-26T14:22:05.939Z,1.15
2022-08-26T14:27:09.775Z,1.25
2022-08-26T14:32:18.890Z,1.30
2022-08-26T14:37:26.887Z,1.45
2022-08-26T14:42:31.405Z,1.17
2022-08-26T14:47:35.437Z,1.35
2022-08-26T14:52:54.762Z,1.15
2022-08-26T14:57:58.498Z,1.33
2022-08-26T15:03:02.475Z,1.10
2022-08-26T15:08:10.803Z,1.30
2022-08-26T15:13:14.861Z,1.23
2022-08-26T15:18:18.706Z,1.17
2022-08-26T15:23:23.985Z,1.15
2022-08-26T15:28:27.850Z,1.27
2022-08-26T15:33:31.676Z,1.70
2022-08-26T15:38:39.567Z,1.30
2022-08-26T15:43:43.294Z,1.15
2022-08-26T15:48:47.209Z,1.42
2022-08-26T15:53:52.987Z,1.00
2022-08-26T15:58:57.565Z,1.35
2022-08-26T16:04:02.493Z,1.33
2022-08-26T16:09:08.599Z,1.00
2022-08-26T16:14:12.415Z,1.42
2022-08-26T16:19:16.535Z,1.40
2022-08-26T16:24:24.881Z,1.27
2022-08-26T16:29:31.906Z,1.27
2022-08-26T16:34:36.006Z,0.90
2022-08-26T16:39:44.981Z,1.37
2022-08-26T16:44:49.096Z,1.27
2022-08-26T16:49:52.897Z,1.12
2022-08-26T16:54:58.452Z,1.20
2022-08-26T17:00:03.708Z,1.30
2022-08-26T17:05:09.566Z,1.67
2022-08-26T17:10:14.802Z,1.75
2022-08-26T17:15:19.445Z,1.50
2022-08-26T17:20:25.132Z,1.40
2022-08-26T17:25:32.872Z,1.55
2022-08-26T17:30:36.930Z,1.35
2022-08-26T17:35:40.768Z,1.62
2022-08-26T17:40:45.851Z,1.23
2022-08-26T17:45:50.741Z,1.33
2022-08-26T17:50:56.448Z,1.40
2022-08-26T17:56:01.637Z,1.42
2022-08-26T18:01:07.106Z,1.60
2022-08-26T18:06:12.967Z,1.33
2022-08-26T18:11:19.892Z,1.80
2022-08-26T18:16:23.693Z,1.70
2022-08-26T18:21:28.797Z,2.45
2022-08-26T18:26:36.496Z,1.87
2022-08-26T18:31:40.324Z,1.25
2022-08-26T18:36:44.930Z,1.58
2022-08-26T18:41:53.268Z,1.62
2022-08-26T18:46:57.048Z,2.08
2022-08-26T18:52:01.079Z,1.25
2022-08-26T18:57:06.600Z,1.00
2022-08-26T19:02:11.146Z,1.35
2022-08-26T19:07:15.125Z,1.42
2022-08-26T19:12:20.198Z,1.70
2022-08-26T19:17:23.970Z,1.83
2022-08-26T19:22:27.740Z,2.10
2022-08-26T19:27:33.588Z,1.77
2022-08-26T19:32:37.310Z,2.10
2022-08-26T19:37:41.111Z,1.70
2022-08-26T19:42:46.266Z,2.10
2022-08-26T19:47:50.084Z,1.83
2022-08-26T19:52:54.097Z,1.87
2022-08-26T19:57:59.281Z,2.08
2022-08-26T20:03:03.330Z,2.47
2022-08-26T20:08:07.059Z,1.85
2022-08-26T20:13:16.882Z,2.10
2022-08-26T20:18:38.180Z,1.45
2022-08-26T20:23:43.624Z,2.17
2022-08-26T20:28:51.101Z,2.00
2022-08-26T20:33:55.945Z,2.08
2022-08-26T20:38:59.944Z,2.45
2022-08-26T20:44:06.804Z,2.05
2022-08-26T20:49:10.707Z,2.10
2022-08-26T20:54:15.376Z,1.77
2022-08-26T20:59:21.550Z,2.12
2022-08-26T21:04:27.676Z,2.40
2022-08-26T21:09:31.564Z,2.12
2022-08-26T21:14:36.785Z,1.98
2022-08-26T21:19:40.615Z,2.12
2022-08-26T21:24:44.479Z,2.60
2022-08-26T21:29:49.595Z,2.42
2022-08-26T21:34:56.957Z,2.13
2022-08-26T21:40:01.924Z,2.40
2022-08-26T21:45:08.515Z,2.50
2022-08-26T21:50:13.596Z,2.70
2022-08-26T21:55:17.503Z,2.20
2022-08-26T22:00:22.744Z,2.58
2022-08-26T22:05:26.460Z,2.80
2022-08-26T22:10:30.205Z,2.40
2022-08-26T22:15:35.901Z,2.80
2022-08-26T22:20:39.664Z,2.40
2022-08-26T22:25:43.401Z,2.60
2022-08-26T22:30:48.709Z,2.12
2022-08-26T22:35:53.709Z,2.40
2022-08-26T22:40:57.880Z,2.97
2022-08-26T22:46:03.109Z,2.80
2022-08-26T22:51:07.132Z,2.70
2022-08-26T22:56:10.954Z,2.10
2022-08-26T23:01:16.906Z,2.30
2022-08-26T23:06:20.813Z,2.10
2022-08-26T23:11:24.629Z,2.40
2022-08-26T23:16:31.268Z,2.47
2022-08-26T23:21:42.134Z,2.70
2022-08-26T23:26:46.533Z,2.40
2022-08-26T23:31:51.675Z,2.72
2022-08-26T23:36:56.940Z,2.45
2022-08-26T23:42:03.349Z,2.60
2022-08-26T23:47:09.359Z,3.12
2022-08-26T23:52:30.859Z,2.40
2022-08-26T23:57:34.875Z,2.72
